sensor_id;sensor_type;location;lat;lon;timestamp;P1;durP1;ratioP1;P2;durP2;ratioP2
56321;SDS011;42227;6.376;-10.782;2023-05-14T00:02:21;46.08;;;28.40;;
56321;SDS011;42227;6.376;-10.782;2023-05-14T00:04:49;44.65;;;30.10;;
56321;SDS011;42227;6.376;-10.782;2023-05-14T00:07:18;53.92;;;32.22;;
56321;SDS011;42227;6.376;-10.782;2023-05-14T00:09:46;54.92;;;29.50;;
56321;SDS011;42227;6.376;-10.782;2023-05-14T00:12:15;53.20;;;28.33;;
56321;SDS011;42227;6.376;-10.782;2023-05-14T00:14:43;37.92;;;25.17;;
56321;SDS011;42227;6.376;-10.782;2023-05-14T00:17:14;43.15;;;27.58;;
56321;SDS011;42227;6.376;-10.782;2023-05-14T00:19:43;40.25;;;25.48;;
56321;SDS011;42227;6.376;-10.782;2023-05-14T00:22:11;46.25;;;24.70;;
56321;SDS011;42227;6.376;-10.782;2023-05-14T00:24:39;41.72;;;24.27;;
56321;SDS011;42227;6.376;-10.782;2023-05-14T00:27:07;42.55;;;24.15;;
56321;SDS011;42227;6.376;-10.782;2023-05-14T00:29:36;37.40;;;22.58;;
56321;SDS011;42227;6.376;-10.782;2023-05-14T00:32:04;33.75;;;20.40;;
56321;SDS011;42227;6.376;-10.782;2023-05-14T00:34:33;34.80;;;20.33;;
56321;SDS011;42227;6.376;-10.782;2023-05-14T00:37:01;39.65;;;19.05;;
56321;SDS011;42227;6.376;-10.782;2023-05-14T00:39:30;36.60;;;18.88;;
56321;SDS011;42227;6.376;-10.782;2023-05-14T00:41:58;33.53;;;19.02;;
56321;SDS011;42227;6.376;-10.782;2023-05-14T00:44:26;32.65;;;19.55;;
56321;SDS011;42227;6.376;-10.782;2023-05-14T00:46:55;33.03;;;19.73;;
56321;SDS011;42227;6.376;-10.782;2023-05-14T00:49:25;31.40;;;18.02;;
56321;SDS011;42227;6.376;-10.782;2023-05-14T00:51:54;33.53;;;19.48;;
56321;SDS011;42227;6.376;-10.782;2023-05-14T00:54:23;35.95;;;18.45;;
56321;SDS011;42227;6.376;-10.782;2023-05-14T00:56:52;31.85;;;20.13;;
56321;SDS011;42227;6.376;-10.782;2023-05-14T00:59:21;32.05;;;19.80;;
56321;SDS011;42227;6.376;-10.782;2023-05-14T01:01:49;35.00;;;20.98;;
56321;SDS011;42227;6.376;-10.782;2023-05-14T01:04:18;36.13;;;22.45;;
56321;SDS011;42227;6.376;-10.782;2023-05-14T01:06:56;37.20;;;23.35;;
56321;SDS011;42227;6.376;-10.782;2023-05-14T01:12:21;49.13;;;23.92;;
56321;SDS011;42227;6.376;-10.782;2023-05-14T01:15:42;41.55;;;24.45;;
56321;SDS011;42227;6.376;-10.782;2023-05-14T01:17:55;33.65;;;19.92;;
56321;SDS011;42227;6.376;-10.782;2023-05-14T01:20:26;31.80;;;21.33;;
56321;SDS011;42227;6.376;-10.782;2023-05-14T01:22:56;31.45;;;20.02;;
56321;SDS011;42227;6.376;-10.782;2023-05-14T01:25:24;28.55;;;18.67;;
56321;SDS011;42227;6.376;-10.782;2023-05-14T01:28:00;35.78;;;20.17;;
56321;SDS011;42227;6.376;-10.782;2023-05-14T01:33:24;28.08;;;18.90;;
56321;SDS011;42227;6.376;-10.782;2023-05-14T01:38:24;39.08;;;25.70;;
56321;SDS011;42227;6.376;-10.782;2023-05-14T01:40:53;45.30;;;26.20;;
56321;SDS011;42227;6.376;-10.782;2023-05-14T01:43:23;45.47;;;26.85;;
56321;SDS011;42227;6.376;-10.782;2023-05-14T01:45:52;37.40;;;25.40;;
56321;SDS011;42227;6.376;-10.782;2023-05-14T01:48:20;36.30;;;23.73;;
56321;SDS011;42227;6.376;-10.782;2023-05-14T01:50:49;35.08;;;22.25;;
56321;SDS011;42227;6.376;-10.782;2023-05-14T01:53:18;39.80;;;23.95;;
56321;SDS011;42227;6.376;-10.782;2023-05-14T01:55:46;41.63;;;23.08;;
56321;SDS011;42227;6.376;-10.782;2023-05-14T01:58:14;43.38;;;23.73;;
56321;SDS011;42227;6.376;-10.782;2023-05-14T02:00:42;35.47;;;24.35;;
56321;SDS011;42227;6.376;-10.782;2023-05-14T02:03:11;43.15;;;25.13;;
56321;SDS011;42227;6.376;-10.782;2023-05-14T02:05:39;35.08;;;26.05;;
56321;SDS011;42227;6.376;-10.782;2023-05-14T02:08:07;50.83;;;29.88;;
56321;SDS011;42227;6.376;-10.782;2023-05-14T02:10:36;42.22;;;28.58;;
56321;SDS011;42227;6.376;-10.782;2023-05-14T02:13:04;43.40;;;26.63;;
56321;SDS011;42227;6.376;-10.782;2023-05-14T02:15:32;44.70;;;26.90;;
56321;SDS011;42227;6.376;-10.782;2023-05-14T02:18:01;43.60;;;28.92;;
56321;SDS011;42227;6.376;-10.782;2023-05-14T02:20:29;43.80;;;28.42;;
56321;SDS011;42227;6.376;-10.782;2023-05-14T02:22:57;43.95;;;27.83;;
56321;SDS011;42227;6.376;-10.782;2023-05-14T02:25:26;41.40;;;26.67;;
56321;SDS011;42227;6.376;-10.782;2023-05-14T02:27:54;35.70;;;25.77;;
56321;SDS011;42227;6.376;-10.782;2023-05-14T02:30:23;37.40;;;27.08;;
56321;SDS011;42227;6.376;-10.782;2023-05-14T02:32:51;45.17;;;26.55;;
56321;SDS011;42227;6.376;-10.782;2023-05-14T02:35:20;36.85;;;24.63;;
56321;SDS011;42227;6.376;-10.782;2023-05-14T02:37:48;36.58;;;24.83;;
56321;SDS011;42227;6.376;-10.782;2023-05-14T02:40:16;38.35;;;25.42;;
56321;SDS011;42227;6.376;-10.782;2023-05-14T02:42:45;46.05;;;25.17;;
56321;SDS011;42227;6.376;-10.782;2023-05-14T02:45:13;44.72;;;24.42;;
56321;SDS011;42227;6.376;-10.782;2023-05-14T02:47:42;43.20;;;24.88;;
56321;SDS011;42227;6.376;-10.782;2023-05-14T02:50:10;38.72;;;23.85;;
56321;SDS011;42227;6.376;-10.782;2023-05-14T02:52:38;35.50;;;23.75;;
56321;SDS011;42227;6.376;-10.782;2023-05-14T02:55:07;36.95;;;22.73;;
56321;SDS011;42227;6.376;-10.782;2023-05-14T02:57:38;43.75;;;23.08;;
56321;SDS011;42227;6.376;-10.782;2023-05-14T03:00:07;30.17;;;17.35;;
56321;SDS011;42227;6.376;-10.782;2023-05-14T03:02:36;25.77;;;14.57;;
56321;SDS011;42227;6.376;-10.782;2023-05-14T03:05:05;26.13;;;14.27;;
56321;SDS011;42227;6.376;-10.782;2023-05-14T03:07:34;33.28;;;16.60;;
56321;SDS011;42227;6.376;-10.782;2023-05-14T03:10:02;28.52;;;16.75;;
56321;SDS011;42227;6.376;-10.782;2023-05-14T03:12:30;34.22;;;19.05;;
56321;SDS011;42227;6.376;-10.782;2023-05-14T03:14:59;75.85;;;41.40;;
56321;SDS011;42227;6.376;-10.782;2023-05-14T03:17:27;52.97;;;29.85;;
56321;SDS011;42227;6.376;-10.782;2023-05-14T03:19:55;33.97;;;18.42;;
56321;SDS011;42227;6.376;-10.782;2023-05-14T03:22:25;35.33;;;17.08;;
56321;SDS011;42227;6.376;-10.782;2023-05-14T03:24:53;27.27;;;16.02;;
56321;SDS011;42227;6.376;-10.782;2023-05-14T03:27:22;35.30;;;15.93;;
56321;SDS011;42227;6.376;-10.782;2023-05-14T03:29:50;27.15;;;15.23;;
56321;SDS011;42227;6.376;-10.782;2023-05-14T03:32:18;24.17;;;17.08;;
56321;SDS011;42227;6.376;-10.782;2023-05-14T03:34:47;32.58;;;19.00;;
56321;SDS011;42227;6.376;-10.782;2023-05-14T03:37:15;33.53;;;20.40;;
56321;SDS011;42227;6.376;-10.782;2023-05-14T03:39:43;28.08;;;17.10;;
56321;SDS011;42227;6.376;-10.782;2023-05-14T03:42:11;26.67;;;17.67;;
56321;SDS011;42227;6.376;-10.782;2023-05-14T03:44:40;36.85;;;25.20;;
56321;SDS011;42227;6.376;-10.782;2023-05-14T03:47:08;45.30;;;31.00;;
56321;SDS011;42227;6.376;-10.782;2023-05-14T03:49:36;33.15;;;17.88;;
56321;SDS011;42227;6.376;-10.782;2023-05-14T03:52:07;32.15;;;16.38;;
56321;SDS011;42227;6.376;-10.782;2023-05-14T03:54:36;22.25;;;13.82;;
56321;SDS011;42227;6.376;-10.782;2023-05-14T03:57:04;26.40;;;14.25;;
56321;SDS011;42227;6.376;-10.782;2023-05-14T03:59:32;26.52;;;13.98;;
56321;SDS011;42227;6.376;-10.782;2023-05-14T04:02:00;24.42;;;11.93;;
56321;SDS011;42227;6.376;-10.782;2023-05-14T04:04:28;23.73;;;12.73;;
56321;SDS011;42227;6.376;-10.782;2023-05-14T04:06:57;30.38;;;13.35;;
56321;SDS011;42227;6.376;-10.782;2023-05-14T04:09:27;27.20;;;12.55;;
56321;SDS011;42227;6.376;-10.782;2023-05-14T04:11:55;25.70;;;12.88;;
56321;SDS011;42227;6.376;-10.782;2023-05-14T04:14:24;28.75;;;14.13;;
56321;SDS011;42227;6.376;-10.782;2023-05-14T04:16:52;32.10;;;16.58;;
56321;SDS011;42227;6.376;-10.782;2023-05-14T04:19:20;23.90;;;12.02;;
56321;SDS011;42227;6.376;-10.782;2023-05-14T04:21:48;19.08;;;12.38;;
56321;SDS011;42227;6.376;-10.782;2023-05-14T04:24:17;20.63;;;10.50;;
56321;SDS011;42227;6.376;-10.782;2023-05-14T04:26:45;23.35;;;13.50;;
56321;SDS011;42227;6.376;-10.782;2023-05-14T04:29:13;24.23;;;13.52;;
56321;SDS011;42227;6.376;-10.782;2023-05-14T04:31:41;26.45;;;13.65;;
56321;SDS011;42227;6.376;-10.782;2023-05-14T04:34:10;25.05;;;11.55;;
56321;SDS011;42227;6.376;-10.782;2023-05-14T04:36:38;20.05;;;10.75;;
56321;SDS011;42227;6.376;-10.782;2023-05-14T04:39:06;32.65;;;11.75;;
56321;SDS011;42227;6.376;-10.782;2023-05-14T04:41:35;26.52;;;11.93;;
56321;SDS011;42227;6.376;-10.782;2023-05-14T04:44:03;24.50;;;13.82;;
56321;SDS011;42227;6.376;-10.782;2023-05-14T04:46:31;28.92;;;12.48;;
56321;SDS011;42227;6.376;-10.782;2023-05-14T04:49:00;17.70;;;10.98;;
56321;SDS011;42227;6.376;-10.782;2023-05-14T04:51:28;18.92;;;11.00;;
56321;SDS011;42227;6.376;-10.782;2023-05-14T04:53:56;19.52;;;9.90;;
56321;SDS011;42227;6.376;-10.782;2023-05-14T04:56:24;13.10;;;9.15;;
56321;SDS011;42227;6.376;-10.782;2023-05-14T04:58:55;21.20;;;11.50;;
56321;SDS011;42227;6.376;-10.782;2023-05-14T05:01:23;25.75;;;11.15;;
56321;SDS011;42227;6.376;-10.782;2023-05-14T05:03:52;23.58;;;11.50;;
56321;SDS011;42227;6.376;-10.782;2023-05-14T05:06:20;24.23;;;11.27;;
56321;SDS011;42227;6.376;-10.782;2023-05-14T05:08:48;19.48;;;11.80;;
56321;SDS011;42227;6.376;-10.782;2023-05-14T05:11:19;22.40;;;11.18;;
56321;SDS011;42227;6.376;-10.782;2023-05-14T05:13:48;19.90;;;11.70;;
56321;SDS011;42227;6.376;-10.782;2023-05-14T05:16:17;26.67;;;11.45;;
56321;SDS011;42227;6.376;-10.782;2023-05-14T05:18:45;24.98;;;11.90;;
56321;SDS011;42227;6.376;-10.782;2023-05-14T05:21:13;23.00;;;12.05;;
56321;SDS011;42227;6.376;-10.782;2023-05-14T05:23:41;18.52;;;10.38;;
56321;SDS011;42227;6.376;-10.782;2023-05-14T05:26:10;22.75;;;12.52;;
56321;SDS011;42227;6.376;-10.782;2023-05-14T05:28:38;19.60;;;12.30;;
56321;SDS011;42227;6.376;-10.782;2023-05-14T05:31:06;16.58;;;10.90;;
56321;SDS011;42227;6.376;-10.782;2023-05-14T05:33:34;18.92;;;11.30;;
56321;SDS011;42227;6.376;-10.782;2023-05-14T05:36:03;18.35;;;11.85;;
56321;SDS011;42227;6.376;-10.782;2023-05-14T05:38:31;19.95;;;10.57;;
56321;SDS011;42227;6.376;-10.782;2023-05-14T05:40:59;28.48;;;13.38;;
56321;SDS011;42227;6.376;-10.782;2023-05-14T05:43:28;19.73;;;11.18;;
56321;SDS011;42227;6.376;-10.782;2023-05-14T05:45:56;20.80;;;10.55;;
56321;SDS011;42227;6.376;-10.782;2023-05-14T05:48:24;22.60;;;11.52;;
56321;SDS011;42227;6.376;-10.782;2023-05-14T05:50:54;19.83;;;11.95;;
56321;SDS011;42227;6.376;-10.782;2023-05-14T05:53:22;15.27;;;10.07;;
56321;SDS011;42227;6.376;-10.782;2023-05-14T05:55:50;30.48;;;13.45;;
56321;SDS011;42227;6.376;-10.782;2023-05-14T05:58:19;20.92;;;12.60;;
56321;SDS011;42227;6.376;-10.782;2023-05-14T06:00:47;23.00;;;12.65;;
56321;SDS011;42227;6.376;-10.782;2023-05-14T06:03:15;18.83;;;12.20;;
56321;SDS011;42227;6.376;-10.782;2023-05-14T06:05:43;23.27;;;12.52;;
56321;SDS011;42227;6.376;-10.782;2023-05-14T06:08:12;18.85;;;13.02;;
56321;SDS011;42227;6.376;-10.782;2023-05-14T06:10:40;21.77;;;13.80;;
56321;SDS011;42227;6.376;-10.782;2023-05-14T06:13:08;23.05;;;13.45;;
56321;SDS011;42227;6.376;-10.782;2023-05-14T06:15:36;23.80;;;13.68;;
56321;SDS011;42227;6.376;-10.782;2023-05-14T06:18:05;18.25;;;11.45;;
56321;SDS011;42227;6.376;-10.782;2023-05-14T06:20:33;20.17;;;10.57;;
56321;SDS011;42227;6.376;-10.782;2023-05-14T06:23:01;21.45;;;10.80;;
56321;SDS011;42227;6.376;-10.782;2023-05-14T06:25:29;19.27;;;11.50;;
56321;SDS011;42227;6.376;-10.782;2023-05-14T06:27:58;19.85;;;11.80;;
56321;SDS011;42227;6.376;-10.782;2023-05-14T06:30:26;24.42;;;11.98;;
56321;SDS011;42227;6.376;-10.782;2023-05-14T06:32:54;16.63;;;10.40;;
56321;SDS011;42227;6.376;-10.782;2023-05-14T06:35:23;20.75;;;10.63;;
56321;SDS011;42227;6.376;-10.782;2023-05-14T06:37:51;18.73;;;10.80;;
56321;SDS011;42227;6.376;-10.782;2023-05-14T06:40:19;21.20;;;11.20;;
56321;SDS011;42227;6.376;-10.782;2023-05-14T06:42:48;20.48;;;11.88;;
56321;SDS011;42227;6.376;-10.782;2023-05-14T06:45:17;14.70;;;10.18;;
56321;SDS011;42227;6.376;-10.782;2023-05-14T06:47:45;18.60;;;11.23;;
56321;SDS011;42227;6.376;-10.782;2023-05-14T06:50:13;16.90;;;11.82;;
56321;SDS011;42227;6.376;-10.782;2023-05-14T06:52:42;17.25;;;12.73;;
56321;SDS011;42227;6.376;-10.782;2023-05-14T06:55:10;30.30;;;13.50;;
56321;SDS011;42227;6.376;-10.782;2023-05-14T06:57:41;17.90;;;11.55;;
56321;SDS011;42227;6.376;-10.782;2023-05-14T07:00:10;20.08;;;12.63;;
56321;SDS011;42227;6.376;-10.782;2023-05-14T07:02:38;20.33;;;13.70;;
56321;SDS011;42227;6.376;-10.782;2023-05-14T07:05:07;23.38;;;15.20;;
56321;SDS011;42227;6.376;-10.782;2023-05-14T07:07:35;22.10;;;13.80;;
56321;SDS011;42227;6.376;-10.782;2023-05-14T07:10:04;23.52;;;13.15;;
56321;SDS011;42227;6.376;-10.782;2023-05-14T07:12:32;20.63;;;12.40;;
56321;SDS011;42227;6.376;-10.782;2023-05-14T07:15:01;22.40;;;11.88;;
56321;SDS011;42227;6.376;-10.782;2023-05-14T07:17:29;21.20;;;12.60;;
56321;SDS011;42227;6.376;-10.782;2023-05-14T07:19:57;17.77;;;12.80;;
56321;SDS011;42227;6.376;-10.782;2023-05-14T07:22:26;18.30;;;12.07;;
56321;SDS011;42227;6.376;-10.782;2023-05-14T07:24:54;21.17;;;9.90;;
56321;SDS011;42227;6.376;-10.782;2023-05-14T07:27:22;19.70;;;11.23;;
56321;SDS011;42227;6.376;-10.782;2023-05-14T07:29:50;16.73;;;11.60;;
56321;SDS011;42227;6.376;-10.782;2023-05-14T07:32:19;16.00;;;11.45;;
56321;SDS011;42227;6.376;-10.782;2023-05-14T07:34:47;20.23;;;11.40;;
56321;SDS011;42227;6.376;-10.782;2023-05-14T07:37:15;20.92;;;11.25;;
56321;SDS011;42227;6.376;-10.782;2023-05-14T07:39:43;14.75;;;9.05;;
56321;SDS011;42227;6.376;-10.782;2023-05-14T07:42:12;18.75;;;9.70;;
56321;SDS011;42227;6.376;-10.782;2023-05-14T07:44:50;15.65;;;9.68;;
56321;SDS011;42227;6.376;-10.782;2023-05-14T07:47:19;21.25;;;10.35;;
56321;SDS011;42227;6.376;-10.782;2023-05-14T07:49:47;19.20;;;11.30;;
56321;SDS011;42227;6.376;-10.782;2023-05-14T07:52:15;25.90;;;10.85;;
56321;SDS011;42227;6.376;-10.782;2023-05-14T07:54:43;20.95;;;10.75;;
56321;SDS011;42227;6.376;-10.782;2023-05-14T07:57:13;18.45;;;9.23;;
56321;SDS011;42227;6.376;-10.782;2023-05-14T07:59:41;18.77;;;9.07;;
56321;SDS011;42227;6.376;-10.782;2023-05-14T08:02:09;13.88;;;7.95;;
56321;SDS011;42227;6.376;-10.782;2023-05-14T08:04:38;13.93;;;8.15;;
56321;SDS011;42227;6.376;-10.782;2023-05-14T08:07:06;15.77;;;7.93;;
56321;SDS011;42227;6.376;-10.782;2023-05-14T08:09:37;16.65;;;8.80;;
56321;SDS011;42227;6.376;-10.782;2023-05-14T08:12:06;16.77;;;8.95;;
56321;SDS011;42227;6.376;-10.782;2023-05-14T08:14:34;16.23;;;9.13;;
56321;SDS011;42227;6.376;-10.782;2023-05-14T08:17:03;14.57;;;9.65;;
56321;SDS011;42227;6.376;-10.782;2023-05-14T08:19:31;18.73;;;7.63;;
56321;SDS011;42227;6.376;-10.782;2023-05-14T08:22:00;11.95;;;6.85;;
56321;SDS011;42227;6.376;-10.782;2023-05-14T08:24:28;8.77;;;6.22;;
56321;SDS011;42227;6.376;-10.782;2023-05-14T08:26:56;13.25;;;7.65;;
56321;SDS011;42227;6.376;-10.782;2023-05-14T08:29:25;16.90;;;6.65;;
56321;SDS011;42227;6.376;-10.782;2023-05-14T08:31:53;11.00;;;6.70;;
56321;SDS011;42227;6.376;-10.782;2023-05-14T08:34:25;13.00;;;7.57;;
56321;SDS011;42227;6.376;-10.782;2023-05-14T08:36:53;14.85;;;7.75;;
56321;SDS011;42227;6.376;-10.782;2023-05-14T08:39:22;9.80;;;6.53;;
56321;SDS011;42227;6.376;-10.782;2023-05-14T08:41:50;9.35;;;5.35;;
56321;SDS011;42227;6.376;-10.782;2023-05-14T08:44:19;20.00;;;6.95;;
56321;SDS011;42227;6.376;-10.782;2023-05-14T08:46:53;9.00;;;5.43;;
56321;SDS011;42227;6.376;-10.782;2023-05-14T08:52:03;16.90;;;13.45;;
56321;SDS011;42227;6.376;-10.782;2023-05-14T08:54:31;7.68;;;6.10;;
56321;SDS011;42227;6.376;-10.782;2023-05-14T08:57:01;11.45;;;7.35;;
56321;SDS011;42227;6.376;-10.782;2023-05-14T08:59:31;6.25;;;4.55;;
56321;SDS011;42227;6.376;-10.782;2023-05-14T09:02:00;16.60;;;11.50;;
56321;SDS011;42227;6.376;-10.782;2023-05-14T09:04:29;20.25;;;16.60;;
56321;SDS011;42227;6.376;-10.782;2023-05-14T09:06:59;11.50;;;6.28;;
56321;SDS011;42227;6.376;-10.782;2023-05-14T09:11:25;12.45;;;6.72;;
56321;SDS011;42227;6.376;-10.782;2023-05-14T09:13:54;14.18;;;9.48;;
56321;SDS011;42227;6.376;-10.782;2023-05-14T09:16:22;12.63;;;7.85;;
56321;SDS011;42227;6.376;-10.782;2023-05-14T09:18:58;12.02;;;5.78;;
56321;SDS011;42227;6.376;-10.782;2023-05-14T09:21:27;18.70;;;8.20;;
56321;SDS011;42227;6.376;-10.782;2023-05-14T09:23:59;15.90;;;6.97;;
56321;SDS011;42227;6.376;-10.782;2023-05-14T09:26:27;10.77;;;6.63;;
56321;SDS011;42227;6.376;-10.782;2023-05-14T09:28:59;8.77;;;5.57;;
56321;SDS011;42227;6.376;-10.782;2023-05-14T09:31:28;14.67;;;4.93;;
56321;SDS011;42227;6.376;-10.782;2023-05-14T09:44:08;11.23;;;3.72;;
56321;SDS011;42227;6.376;-10.782;2023-05-14T09:46:36;9.60;;;3.30;;
56321;SDS011;42227;6.376;-10.782;2023-05-14T09:49:04;7.88;;;3.30;;
56321;SDS011;42227;6.376;-10.782;2023-05-14T09:51:32;14.77;;;3.78;;
56321;SDS011;42227;6.376;-10.782;2023-05-14T09:54:00;9.45;;;4.30;;
56321;SDS011;42227;6.376;-10.782;2023-05-14T09:56:31;19.27;;;5.20;;
56321;SDS011;42227;6.376;-10.782;2023-05-14T09:59:01;11.77;;;4.63;;
56321;SDS011;42227;6.376;-10.782;2023-05-14T10:01:30;9.82;;;4.00;;
56321;SDS011;42227;6.376;-10.782;2023-05-14T10:03:59;12.55;;;4.57;;
56321;SDS011;42227;6.376;-10.782;2023-05-14T10:06:32;11.77;;;5.20;;
56321;SDS011;42227;6.376;-10.782;2023-05-14T10:09:04;8.63;;;4.05;;
56321;SDS011;42227;6.376;-10.782;2023-05-14T10:11:38;15.65;;;5.35;;
56321;SDS011;42227;6.376;-10.782;2023-05-14T10:14:17;11.25;;;4.15;;
56321;SDS011;42227;6.376;-10.782;2023-05-14T10:16:51;6.57;;;3.55;;
56321;SDS011;42227;6.376;-10.782;2023-05-14T10:19:28;8.85;;;3.80;;
56321;SDS011;42227;6.376;-10.782;2023-05-14T10:22:03;12.23;;;5.75;;
56321;SDS011;42227;6.376;-10.782;2023-05-14T10:24:34;12.32;;;5.35;;
56321;SDS011;42227;6.376;-10.782;2023-05-14T10:27:04;10.48;;;4.45;;
56321;SDS011;42227;6.376;-10.782;2023-05-14T10:29:33;11.70;;;5.18;;
56321;SDS011;42227;6.376;-10.782;2023-05-14T10:32:03;9.63;;;4.65;;
56321;SDS011;42227;6.376;-10.782;2023-05-14T10:34:34;11.52;;;4.10;;
56321;SDS011;42227;6.376;-10.782;2023-05-14T10:40:01;18.55;;;4.15;;
56321;SDS011;42227;6.376;-10.782;2023-05-14T10:42:32;8.13;;;3.97;;
56321;SDS011;42227;6.376;-10.782;2023-05-14T10:45:04;11.70;;;4.77;;
56321;SDS011;42227;6.376;-10.782;2023-05-14T10:47:43;7.78;;;4.25;;
56321;SDS011;42227;6.376;-10.782;2023-05-14T10:50:14;16.77;;;4.47;;
56321;SDS011;42227;6.376;-10.782;2023-05-14T10:52:43;5.68;;;3.05;;
56321;SDS011;42227;6.376;-10.782;2023-05-14T10:55:12;6.00;;;3.55;;
56321;SDS011;42227;6.376;-10.782;2023-05-14T10:57:43;13.48;;;3.63;;
56321;SDS011;42227;6.376;-10.782;2023-05-14T11:00:12;8.10;;;3.17;;
56321;SDS011;42227;6.376;-10.782;2023-05-14T11:02:43;8.93;;;4.20;;
56321;SDS011;42227;6.376;-10.782;2023-05-14T11:05:12;10.90;;;4.03;;
56321;SDS011;42227;6.376;-10.782;2023-05-14T11:07:43;10.05;;;4.38;;
56321;SDS011;42227;6.376;-10.782;2023-05-14T11:10:16;11.20;;;4.18;;
56321;SDS011;42227;6.376;-10.782;2023-05-14T11:12:47;10.15;;;4.40;;
56321;SDS011;42227;6.376;-10.782;2023-05-14T11:15:17;11.93;;;3.67;;
56321;SDS011;42227;6.376;-10.782;2023-05-14T11:17:49;9.55;;;4.05;;
56321;SDS011;42227;6.376;-10.782;2023-05-14T11:20:19;13.00;;;4.07;;
56321;SDS011;42227;6.376;-10.782;2023-05-14T11:22:48;9.32;;;3.15;;
56321;SDS011;42227;6.376;-10.782;2023-05-14T11:25:17;7.13;;;3.47;;
56321;SDS011;42227;6.376;-10.782;2023-05-14T11:27:45;14.32;;;4.88;;
56321;SDS011;42227;6.376;-10.782;2023-05-14T11:30:18;8.07;;;3.78;;
56321;SDS011;42227;6.376;-10.782;2023-05-14T11:32:47;15.05;;;3.92;;
56321;SDS011;42227;6.376;-10.782;2023-05-14T11:35:16;12.38;;;4.43;;
56321;SDS011;42227;6.376;-10.782;2023-05-14T11:37:50;9.80;;;4.07;;
56321;SDS011;42227;6.376;-10.782;2023-05-14T11:40:19;16.55;;;4.10;;
56321;SDS011;42227;6.376;-10.782;2023-05-14T11:42:49;11.75;;;4.53;;
56321;SDS011;42227;6.376;-10.782;2023-05-14T11:45:27;7.53;;;3.20;;
56321;SDS011;42227;6.376;-10.782;2023-05-14T11:47:55;10.43;;;3.83;;
56321;SDS011;42227;6.376;-10.782;2023-05-14T11:50:23;15.98;;;4.32;;
56321;SDS011;42227;6.376;-10.782;2023-05-14T11:52:55;14.23;;;4.25;;
56321;SDS011;42227;6.376;-10.782;2023-05-14T11:57:51;12.35;;;3.88;;
56321;SDS011;42227;6.376;-10.782;2023-05-14T12:00:20;19.20;;;4.22;;
56321;SDS011;42227;6.376;-10.782;2023-05-14T12:02:48;8.50;;;4.07;;
56321;SDS011;42227;6.376;-10.782;2023-05-14T12:05:17;16.75;;;4.30;;
56321;SDS011;42227;6.376;-10.782;2023-05-14T12:07:46;8.48;;;3.47;;
56321;SDS011;42227;6.376;-10.782;2023-05-14T12:10:15;13.32;;;4.90;;
56321;SDS011;42227;6.376;-10.782;2023-05-14T12:12:44;9.10;;;4.03;;
56321;SDS011;42227;6.376;-10.782;2023-05-14T12:15:14;7.35;;;3.75;;
56321;SDS011;42227;6.376;-10.782;2023-05-14T12:17:52;6.75;;;3.33;;
56321;SDS011;42227;6.376;-10.782;2023-05-14T12:20:21;11.90;;;4.30;;
56321;SDS011;42227;6.376;-10.782;2023-05-14T12:22:51;12.30;;;4.83;;
56321;SDS011;42227;6.376;-10.782;2023-05-14T12:25:20;9.48;;;4.28;;
56321;SDS011;42227;6.376;-10.782;2023-05-14T12:27:48;15.43;;;4.43;;
56321;SDS011;42227;6.376;-10.782;2023-05-14T12:30:16;6.65;;;4.38;;
56321;SDS011;42227;6.376;-10.782;2023-05-14T12:32:47;11.35;;;5.13;;
56321;SDS011;42227;6.376;-10.782;2023-05-14T12:35:16;13.23;;;4.63;;
56321;SDS011;42227;6.376;-10.782;2023-05-14T12:37:44;15.70;;;6.35;;
56321;SDS011;42227;6.376;-10.782;2023-05-14T12:40:12;17.80;;;5.97;;
56321;SDS011;42227;6.376;-10.782;2023-05-14T12:42:41;11.43;;;5.43;;
56321;SDS011;42227;6.376;-10.782;2023-05-14T12:45:09;12.25;;;4.13;;
56321;SDS011;42227;6.376;-10.782;2023-05-14T12:47:38;14.30;;;4.55;;
56321;SDS011;42227;6.376;-10.782;2023-05-14T12:50:07;12.75;;;4.72;;
56321;SDS011;42227;6.376;-10.782;2023-05-14T12:52:35;7.85;;;3.25;;
56321;SDS011;42227;6.376;-10.782;2023-05-14T12:55:06;17.85;;;4.25;;
56321;SDS011;42227;6.376;-10.782;2023-05-14T12:57:36;16.15;;;4.68;;
56321;SDS011;42227;6.376;-10.782;2023-05-14T13:00:05;13.77;;;4.93;;
56321;SDS011;42227;6.376;-10.782;2023-05-14T13:02:37;18.20;;;8.68;;
56321;SDS011;42227;6.376;-10.782;2023-05-14T13:05:12;20.45;;;7.20;;
56321;SDS011;42227;6.376;-10.782;2023-05-14T13:07:40;15.73;;;5.28;;
56321;SDS011;42227;6.376;-10.782;2023-05-14T13:10:09;18.88;;;5.70;;
56321;SDS011;42227;6.376;-10.782;2023-05-14T13:12:37;26.38;;;7.10;;
56321;SDS011;42227;6.376;-10.782;2023-05-14T13:15:06;21.80;;;11.55;;
56321;SDS011;42227;6.376;-10.782;2023-05-14T13:17:35;17.02;;;6.22;;
56321;SDS011;42227;6.376;-10.782;2023-05-14T13:20:03;15.75;;;7.63;;
56321;SDS011;42227;6.376;-10.782;2023-05-14T13:22:32;16.08;;;8.85;;
56321;SDS011;42227;6.376;-10.782;2023-05-14T13:25:00;21.98;;;8.88;;
56321;SDS011;42227;6.376;-10.782;2023-05-14T13:27:29;16.25;;;5.68;;
56321;SDS011;42227;6.376;-10.782;2023-05-14T13:29:57;34.85;;;15.38;;
56321;SDS011;42227;6.376;-10.782;2023-05-14T13:32:25;20.52;;;8.23;;
56321;SDS011;42227;6.376;-10.782;2023-05-14T13:34:54;16.80;;;4.80;;
56321;SDS011;42227;6.376;-10.782;2023-05-14T13:37:23;14.98;;;4.78;;
56321;SDS011;42227;6.376;-10.782;2023-05-14T13:39:51;20.85;;;9.23;;
56321;SDS011;42227;6.376;-10.782;2023-05-14T13:42:19;13.48;;;8.20;;
56321;SDS011;42227;6.376;-10.782;2023-05-14T13:44:48;16.00;;;5.30;;
56321;SDS011;42227;6.376;-10.782;2023-05-14T13:47:16;10.98;;;5.03;;
56321;SDS011;42227;6.376;-10.782;2023-05-14T13:49:44;13.30;;;4.43;;
56321;SDS011;42227;6.376;-10.782;2023-05-14T13:52:13;13.10;;;5.63;;
56321;SDS011;42227;6.376;-10.782;2023-05-14T13:54:41;16.63;;;4.32;;
56321;SDS011;42227;6.376;-10.782;2023-05-14T13:57:09;11.32;;;4.47;;
56321;SDS011;42227;6.376;-10.782;2023-05-14T13:59:38;18.85;;;4.90;;
56321;SDS011;42227;6.376;-10.782;2023-05-14T14:02:06;12.85;;;4.75;;
56321;SDS011;42227;6.376;-10.782;2023-05-14T14:04:35;10.48;;;4.80;;
56321;SDS011;42227;6.376;-10.782;2023-05-14T14:07:03;13.52;;;5.68;;
56321;SDS011;42227;6.376;-10.782;2023-05-14T14:09:31;11.35;;;6.13;;
56321;SDS011;42227;6.376;-10.782;2023-05-14T14:12:01;12.55;;;5.28;;
56321;SDS011;42227;6.376;-10.782;2023-05-14T14:14:30;18.37;;;6.63;;
56321;SDS011;42227;6.376;-10.782;2023-05-14T14:16:58;16.15;;;5.32;;
56321;SDS011;42227;6.376;-10.782;2023-05-14T14:19:27;17.50;;;7.93;;
56321;SDS011;42227;6.376;-10.782;2023-05-14T14:21:55;9.80;;;5.72;;
56321;SDS011;42227;6.376;-10.782;2023-05-14T14:24:24;21.05;;;6.40;;
56321;SDS011;42227;6.376;-10.782;2023-05-14T14:26:52;27.98;;;8.40;;
56321;SDS011;42227;6.376;-10.782;2023-05-14T14:29:20;19.10;;;6.75;;
56321;SDS011;42227;6.376;-10.782;2023-05-14T14:31:48;15.38;;;6.25;;
56321;SDS011;42227;6.376;-10.782;2023-05-14T14:34:16;16.95;;;6.80;;
56321;SDS011;42227;6.376;-10.782;2023-05-14T14:36:45;19.25;;;7.15;;
56321;SDS011;42227;6.376;-10.782;2023-05-14T14:39:13;16.90;;;6.10;;
56321;SDS011;42227;6.376;-10.782;2023-05-14T14:41:41;18.10;;;7.88;;
56321;SDS011;42227;6.376;-10.782;2023-05-14T14:44:10;25.40;;;9.90;;
56321;SDS011;42227;6.376;-10.782;2023-05-14T14:46:38;22.90;;;7.18;;
56321;SDS011;42227;6.376;-10.782;2023-05-14T14:49:06;21.67;;;8.90;;
56321;SDS011;42227;6.376;-10.782;2023-05-14T14:51:35;58.13;;;31.75;;
56321;SDS011;42227;6.376;-10.782;2023-05-14T14:54:03;70.03;;;39.47;;
56321;SDS011;42227;6.376;-10.782;2023-05-14T14:56:32;23.20;;;10.57;;